Gambler — LELC — position and weather

sailwx.info

Track history (hours):
 
Tides and Currents Weather Stations Pressure Air Temp Water Temp Dewpoint Dewpoint Depression Visibility Wind Speed Wind Dir Waves Ship Positions

Gambler

Last reported at 2017-Feb-24 03:33 UTC. Time now 2017-Feb-24 03:50 UTC.
Position N 61°56' E 005°08'.

Length 70 m; draft 7 m.

Type: Fishing. MMSI: 258412000.

Date/timePositionNaut miles runAvg speedWind from/ knotsBaromVisibWave heightAir tempDewpointWater temp
2017-Feb-24 03:33N 61°56' E 005°08'0 0.0
2017-Feb-24 02:33N 61°56' E 005°08'1 0.5
2017-Feb-24 01:33N 61°56' E 005°08'10 9.8
2017-Feb-24 00:33N 62°06' E 005°06'9 9.3
2017-Feb-23 23:33N 62°15' E 005°13'1110.8
2017-Feb-23 22:33N 62°18' E 005°35'10 9.7
2017-Feb-23 21:33N 62°25' E 005°50'1111.1
2017-Feb-23 20:33N 62°31' E 006°11'3 3.5
2017-Feb-23 19:34N 62°33' E 006°16'0 0.0
2017-Feb-23 18:33N 62°33' E 006°16'0 0.4
2017-Feb-23 17:33N 62°33' E 006°15'3 2.9
2017-Feb-23 16:33N 62°34' E 006°10'5 4.8
2017-Feb-23 15:33N 62°39' E 006°08'9 8.6
2017-Feb-23 14:33N 62°48' E 006°05'9 8.9
2017-Feb-23 13:34N 62°56' E 006°00'4 4.4
2017-Feb-23 12:33N 62°59' E 006°08'8 8.4
2017-Feb-23 11:33N 62°57' E 006°27'10 9.6
2017-Feb-23 10:33N 62°54' E 006°07'10 9.5
2017-Feb-23 09:33N 62°52' E 005°46'8 8.4
2017-Feb-23 08:33N 62°43' E 005°49'1010.1
2017-Feb-23 07:33N 62°35' E 005°36'6 6.5
2017-Feb-23 06:33N 62°30' E 005°44'10 9.6
2017-Feb-23 05:33N 62°27' E 006°04'3 2.6
2017-Feb-23 04:34N 62°28' E 006°09'0 0.0
2017-Feb-23 03:33N 62°28' E 006°09'0 0.0
2017-Feb-23 02:33N 62°28' E 006°09'0 0.0
2017-Feb-23 01:33N 62°28' E 006°09'0 0.0
2017-Feb-23 00:33N 62°28' E 006°09'0 0.0
2017-Feb-22 23:33N 62°28' E 006°09'0 0.0
2017-Feb-22 22:33N 62°28' E 006°09'0 0.0
2017-Feb-22 21:33N 62°28' E 006°09'0 0.0
2017-Feb-22 20:33N 62°28' E 006°09'0 0.0
2017-Feb-22 19:33N 62°28' E 006°09'0 0.0
2017-Feb-22 18:34N 62°28' E 006°09'0 0.0
2017-Feb-22 17:34N 62°28' E 006°09'0 0.0
2017-Feb-22 16:33N 62°28' E 006°09'0 0.0
2017-Feb-22 15:33N 62°28' E 006°09'0 0.3
2017-Feb-22 14:33N 62°28' E 006°09'1 0.7
2017-Feb-22 13:32N 62°28' E 006°07'1 1.1
2017-Feb-22 12:33N 62°28' E 006°10'0 0.0
2017-Feb-22 11:34N 62°28' E 006°10'0 0.0
2017-Feb-22 10:33N 62°28' E 006°10'0 0.0
2017-Feb-22 09:33N 62°28' E 006°10'0 0.0
2017-Feb-22 08:33N 62°28' E 006°10'0 0.0
2017-Feb-22 07:33N 62°28' E 006°10'0 0.0
2017-Feb-22 06:33N 62°28' E 006°10'0 0.0
2017-Feb-22 05:33N 62°28' E 006°10'0 0.0
2017-Feb-22 04:34N 62°28' E 006°10'0 0.0
2017-Feb-22 03:33N 62°28' E 006°10'0 0.0
2017-Feb-22 02:33N 62°28' E 006°10'0 0.0
2017-Feb-22 01:33N 62°28' E 006°10'0 0.0
2017-Feb-22 00:33N 62°28' E 006°10'0 0.0
2017-Feb-21 23:33N 62°28' E 006°10'0 0.0
2017-Feb-21 22:34N 62°28' E 006°10'0 0.0
2017-Feb-21 21:33N 62°28' E 006°10'0 0.0
2017-Feb-21 20:33N 62°28' E 006°10'0 0.0
2017-Feb-21 19:33N 62°28' E 006°10'2 1.6
2017-Feb-21 18:33N 62°29' E 006°06'6 6.2
2017-Feb-21 17:34N 62°33' E 006°16'0 0.0
2017-Feb-21 16:34N 62°33' E 006°16'0 0.0
2017-Feb-21 15:33N 62°33' E 006°16'0 0.0
2017-Feb-21 14:33N 62°33' E 006°16'3 2.6
2017-Feb-21 13:33N 62°34' E 006°11'1 0.6
2017-Feb-21 12:33N 62°34' E 006°10'1 1.2
2017-Feb-21 11:33N 62°35' E 006°10'0 0.4
2017-Feb-21 10:33N 62°35' E 006°10'0 0.3
2017-Feb-21 09:33N 62°34' E 006°10'0 0.3
2017-Feb-21 08:34N 62°34' E 006°10'1 0.8
2017-Feb-21 07:33N 62°34' E 006°11'2 2.4
2017-Feb-21 06:34N 62°33' E 006°16'0 0.0
2017-Feb-21 05:33N 62°33' E 006°16'0 0.0
2017-Feb-21 04:33N 62°33' E 006°16'0 0.0
2017-Feb-21 03:33N 62°33' E 006°16'0 0.0
2017-Feb-21 02:33N 62°33' E 006°16'0 0.0
2017-Feb-21 01:33N 62°33' E 006°16'0 0.0
2017-Feb-21 00:33N 62°33' E 006°16'0 0.0
2017-Feb-20 23:33N 62°33' E 006°16'0 0.0
2017-Feb-20 22:33N 62°33' E 006°16'0 0.0
2017-Feb-20 21:33N 62°33' E 006°16'1 0.7
2017-Feb-20 20:33N 62°33' E 006°15'3 3.3
2017-Feb-20 19:34N 62°35' E 006°10'4 4.0
2017-Feb-20 18:33N 62°39' E 006°08'4 4.2
2017-Feb-20 17:34N 62°35' E 006°11'8 7.9
2017-Feb-20 16:34N 62°27' E 006°08'3 3.0
2017-Feb-20 15:33N 62°26' E 006°15'0 0.0
2017-Feb-20 14:33N 62°26' E 006°15'0 0.0
2017-Feb-20 13:33N 62°26' E 006°15'0 0.0
2017-Feb-20 12:33N 62°26' E 006°15'0 0.0
2017-Feb-20 11:33N 62°26' E 006°15'0 0.0
2017-Feb-20 10:34N 62°26' E 006°15'0 0.0
2017-Feb-20 09:33N 62°26' E 006°15'0 0.0
2017-Feb-20 08:33N 62°26' E 006°15'0 0.0
2017-Feb-20 07:33N 62°26' E 006°15'0 0.0
2017-Feb-20 06:33N 62°26' E 006°15'0 0.0
2017-Feb-20 05:33N 62°26' E 006°15'0 0.0
2017-Feb-20 04:33N 62°26' E 006°15'0 0.0
2017-Feb-20 03:33N 62°26' E 006°15'0 0.0
2017-Feb-20 02:34N 62°26' E 006°15'0 0.0
2017-Feb-20 01:33N 62°26' E 006°15'0 0.0
2017-Feb-20 00:33N 62°26' E 006°15'0 0.0
2017-Feb-19 23:33N 62°26' E 006°15'0 0.0
2017-Feb-19 22:33N 62°26' E 006°15'1 1.2
2017-Feb-19 21:33N 62°27' E 006°13'5 5.3
2017-Feb-19 20:33N 62°32' E 006°09'10 9.7
2017-Feb-19 19:33N 62°39' E 006°24'1010.1
2017-Feb-19 18:33N 62°48' E 006°36'1010.1
2017-Feb-19 17:33N 62°56' E 006°48'9 9.0
2017-Feb-19 16:33N 63°01' E 007°05'9 9.1
2017-Feb-19 15:34N 63°04' E 007°24'9 9.0
2017-Feb-19 14:34N 63°09' E 007°41'9 9.2
2017-Feb-19 13:33N 63°14' E 007°58'9 8.9
2017-Feb-19 12:33N 63°19' E 008°15'9 8.9
2017-Feb-19 11:33N 63°24' E 008°31'9 8.7
2017-Feb-19 10:33N 63°27' E 008°49'9 8.6
2017-Feb-19 09:33N 63°30' E 009°07'8 8.2
2017-Feb-19 08:34N 63°37' E 009°16'10 9.7
2017-Feb-19 07:33N 63°47' E 009°19'9 9.1
2017-Feb-19 06:33N 63°55' E 009°27'9 9.4
2017-Feb-19 05:33N 64°04' E 009°37'9 9.3
2017-Feb-19 04:34N 64°12' E 009°47'9 8.9
2017-Feb-19 03:33N 64°19' E 009°60'9 8.8
2017-Feb-19 02:33N 64°25' E 010°14'9 8.8
2017-Feb-19 01:34N 64°31' E 010°28'8 8.3
2017-Feb-19 00:33N 64°37' E 010°42'9 8.7
2017-Feb-18 23:33N 64°44' E 010°56'10 9.6
2017-Feb-18 22:34N 64°50' E 011°12'9 9.1
2017-Feb-18 21:34N 64°57' E 011°28'10 9.7
2017-Feb-18 20:34N 65°03' E 011°44'1010.2
2017-Feb-18 19:33N 65°13' E 011°53'10 9.8
2017-Feb-18 18:33N 65°22' E 012°02'9 8.7
2017-Feb-18 17:33N 65°31' E 012°00'1010.4
2017-Feb-18 16:33N 65°40' E 012°13'1010.4
2017-Feb-18 15:33N 65°50' E 012°21'10 9.8
2017-Feb-18 14:33N 65°59' E 012°29'1010.0
2017-Feb-18 13:33N 66°08' E 012°40'9 9.1
2017-Feb-18 12:33N 66°15' E 012°27'10 9.8
2017-Feb-18 11:33N 66°21' E 012°07'9 9.3
2017-Feb-18 10:34N 66°30' E 012°06'0 0.2
2017-Feb-18 09:34N 66°30' E 012°06'0 0.0
2017-Feb-18 08:34N 66°30' E 012°06'0 0.0
2017-Feb-18 07:34N 66°30' E 012°06'0 0.0
2017-Feb-18 06:34N 66°30' E 012°06'0 0.0
2017-Feb-18 05:34N 66°30' E 012°06'0 0.0
2017-Feb-18 04:34N 66°30' E 012°06'0 0.0
2017-Feb-18 03:34N 66°30' E 012°06'0 0.0
2017-Feb-18 02:34N 66°30' E 012°06'0 0.0
2017-Feb-18 01:34N 66°30' E 012°06'0 0.0
2017-Feb-18 00:34N 66°30' E 012°06'4 3.6
2017-Feb-17 23:34N 66°27' E 012°06'8 8.0
2017-Feb-17 22:33N 66°20' E 011°54'  
Track history (hours):
 
Tides and Currents Weather Stations Pressure Air Temp Water Temp Dewpoint Dewpoint Depression Visibility Wind Speed Wind Dir Waves Ship Positions

Gambler

Last reported at 2017-Feb-24 03:33 UTC. Time now 2017-Feb-24 03:50 UTC.
Position N 61°56' E 005°08'.

Length 70 m; draft 7 m.

Type: Fishing. MMSI: 258412000.

Date/timePositionNaut miles runAvg speedWind from/ knotsBaromVisibWave heightAir tempDewpointWater temp
2017-Feb-24 03:33N 61°56' E 005°08'0 0.0
2017-Feb-24 02:33N 61°56' E 005°08'1 0.5
2017-Feb-24 01:33N 61°56' E 005°08'10 9.8
2017-Feb-24 00:33N 62°06' E 005°06'9 9.3
2017-Feb-23 23:33N 62°15' E 005°13'1110.8
2017-Feb-23 22:33N 62°18' E 005°35'10 9.7
2017-Feb-23 21:33N 62°25' E 005°50'1111.1
2017-Feb-23 20:33N 62°31' E 006°11'3 3.5
2017-Feb-23 19:34N 62°33' E 006°16'0 0.0
2017-Feb-23 18:33N 62°33' E 006°16'0 0.4
2017-Feb-23 17:33N 62°33' E 006°15'3 2.9
2017-Feb-23 16:33N 62°34' E 006°10'5 4.8
2017-Feb-23 15:33N 62°39' E 006°08'9 8.6
2017-Feb-23 14:33N 62°48' E 006°05'9 8.9
2017-Feb-23 13:34N 62°56' E 006°00'4 4.4
2017-Feb-23 12:33N 62°59' E 006°08'8 8.4
2017-Feb-23 11:33N 62°57' E 006°27'10 9.6
2017-Feb-23 10:33N 62°54' E 006°07'10 9.5
2017-Feb-23 09:33N 62°52' E 005°46'8 8.4
2017-Feb-23 08:33N 62°43' E 005°49'1010.1
2017-Feb-23 07:33N 62°35' E 005°36'6 6.5
2017-Feb-23 06:33N 62°30' E 005°44'10 9.6
2017-Feb-23 05:33N 62°27' E 006°04'3 2.6
2017-Feb-23 04:34N 62°28' E 006°09'0 0.0
2017-Feb-23 03:33N 62°28' E 006°09'0 0.0
2017-Feb-23 02:33N 62°28' E 006°09'0 0.0
2017-Feb-23 01:33N 62°28' E 006°09'0 0.0
2017-Feb-23 00:33N 62°28' E 006°09'0 0.0
2017-Feb-22 23:33N 62°28' E 006°09'0 0.0
2017-Feb-22 22:33N 62°28' E 006°09'0 0.0
2017-Feb-22 21:33N 62°28' E 006°09'0 0.0
2017-Feb-22 20:33N 62°28' E 006°09'0 0.0
2017-Feb-22 19:33N 62°28' E 006°09'0 0.0
2017-Feb-22 18:34N 62°28' E 006°09'0 0.0
2017-Feb-22 17:34N 62°28' E 006°09'0 0.0
2017-Feb-22 16:33N 62°28' E 006°09'0 0.0
2017-Feb-22 15:33N 62°28' E 006°09'0 0.3
2017-Feb-22 14:33N 62°28' E 006°09'1 0.7
2017-Feb-22 13:32N 62°28' E 006°07'1 1.1
2017-Feb-22 12:33N 62°28' E 006°10'0 0.0
2017-Feb-22 11:34N 62°28' E 006°10'0 0.0
2017-Feb-22 10:33N 62°28' E 006°10'0 0.0
2017-Feb-22 09:33N 62°28' E 006°10'0 0.0
2017-Feb-22 08:33N 62°28' E 006°10'0 0.0
2017-Feb-22 07:33N 62°28' E 006°10'0 0.0
2017-Feb-22 06:33N 62°28' E 006°10'0 0.0
2017-Feb-22 05:33N 62°28' E 006°10'0 0.0
2017-Feb-22 04:34N 62°28' E 006°10'0 0.0
2017-Feb-22 03:33N 62°28' E 006°10'0 0.0
2017-Feb-22 02:33N 62°28' E 006°10'0 0.0
2017-Feb-22 01:33N 62°28' E 006°10'0 0.0
2017-Feb-22 00:33N 62°28' E 006°10'0 0.0
2017-Feb-21 23:33N 62°28' E 006°10'0 0.0
2017-Feb-21 22:34N 62°28' E 006°10'0 0.0
2017-Feb-21 21:33N 62°28' E 006°10'0 0.0
2017-Feb-21 20:33N 62°28' E 006°10'0 0.0
2017-Feb-21 19:33N 62°28' E 006°10'2 1.6
2017-Feb-21 18:33N 62°29' E 006°06'6 6.2
2017-Feb-21 17:34N 62°33' E 006°16'0 0.0
2017-Feb-21 16:34N 62°33' E 006°16'0 0.0
2017-Feb-21 15:33N 62°33' E 006°16'0 0.0
2017-Feb-21 14:33N 62°33' E 006°16'3 2.6
2017-Feb-21 13:33N 62°34' E 006°11'1 0.6
2017-Feb-21 12:33N 62°34' E 006°10'1 1.2
2017-Feb-21 11:33N 62°35' E 006°10'0 0.4
2017-Feb-21 10:33N 62°35' E 006°10'0 0.3
2017-Feb-21 09:33N 62°34' E 006°10'0 0.3
2017-Feb-21 08:34N 62°34' E 006°10'1 0.8
2017-Feb-21 07:33N 62°34' E 006°11'2 2.4
2017-Feb-21 06:34N 62°33' E 006°16'0 0.0
2017-Feb-21 05:33N 62°33' E 006°16'0 0.0
2017-Feb-21 04:33N 62°33' E 006°16'0 0.0
2017-Feb-21 03:33N 62°33' E 006°16'0 0.0
2017-Feb-21 02:33N 62°33' E 006°16'0 0.0
2017-Feb-21 01:33N 62°33' E 006°16'0 0.0
2017-Feb-21 00:33N 62°33' E 006°16'0 0.0
2017-Feb-20 23:33N 62°33' E 006°16'0 0.0
2017-Feb-20 22:33N 62°33' E 006°16'0 0.0
2017-Feb-20 21:33N 62°33' E 006°16'1 0.7
2017-Feb-20 20:33N 62°33' E 006°15'3 3.3
2017-Feb-20 19:34N 62°35' E 006°10'4 4.0
2017-Feb-20 18:33N 62°39' E 006°08'4 4.2
2017-Feb-20 17:34N 62°35' E 006°11'8 7.9
2017-Feb-20 16:34N 62°27' E 006°08'3 3.0
2017-Feb-20 15:33N 62°26' E 006°15'0 0.0
2017-Feb-20 14:33N 62°26' E 006°15'0 0.0
2017-Feb-20 13:33N 62°26' E 006°15'0 0.0
2017-Feb-20 12:33N 62°26' E 006°15'0 0.0
2017-Feb-20 11:33N 62°26' E 006°15'0 0.0
2017-Feb-20 10:34N 62°26' E 006°15'0 0.0
2017-Feb-20 09:33N 62°26' E 006°15'0 0.0
2017-Feb-20 08:33N 62°26' E 006°15'0 0.0
2017-Feb-20 07:33N 62°26' E 006°15'0 0.0
2017-Feb-20 06:33N 62°26' E 006°15'0 0.0
2017-Feb-20 05:33N 62°26' E 006°15'0 0.0
2017-Feb-20 04:33N 62°26' E 006°15'0 0.0
2017-Feb-20 03:33N 62°26' E 006°15'0 0.0
2017-Feb-20 02:34N 62°26' E 006°15'0 0.0
2017-Feb-20 01:33N 62°26' E 006°15'0 0.0
2017-Feb-20 00:33N 62°26' E 006°15'0 0.0
2017-Feb-19 23:33N 62°26' E 006°15'0 0.0
2017-Feb-19 22:33N 62°26' E 006°15'1 1.2
2017-Feb-19 21:33N 62°27' E 006°13'5 5.3
2017-Feb-19 20:33N 62°32' E 006°09'10 9.7
2017-Feb-19 19:33N 62°39' E 006°24'1010.1
2017-Feb-19 18:33N 62°48' E 006°36'1010.1
2017-Feb-19 17:33N 62°56' E 006°48'9 9.0
2017-Feb-19 16:33N 63°01' E 007°05'9 9.1
2017-Feb-19 15:34N 63°04' E 007°24'9 9.0
2017-Feb-19 14:34N 63°09' E 007°41'9 9.2
2017-Feb-19 13:33N 63°14' E 007°58'9 8.9
2017-Feb-19 12:33N 63°19' E 008°15'9 8.9
2017-Feb-19 11:33N 63°24' E 008°31'9 8.7
2017-Feb-19 10:33N 63°27' E 008°49'9 8.6
2017-Feb-19 09:33N 63°30' E 009°07'8 8.2
2017-Feb-19 08:34N 63°37' E 009°16'10 9.7
2017-Feb-19 07:33N 63°47' E 009°19'9 9.1
2017-Feb-19 06:33N 63°55' E 009°27'9 9.4
2017-Feb-19 05:33N 64°04' E 009°37'9 9.3
2017-Feb-19 04:34N 64°12' E 009°47'9 8.9
2017-Feb-19 03:33N 64°19' E 009°60'9 8.8
2017-Feb-19 02:33N 64°25' E 010°14'9 8.8
2017-Feb-19 01:34N 64°31' E 010°28'8 8.3
2017-Feb-19 00:33N 64°37' E 010°42'9 8.7
2017-Feb-18 23:33N 64°44' E 010°56'10 9.6
2017-Feb-18 22:34N 64°50' E 011°12'9 9.1
2017-Feb-18 21:34N 64°57' E 011°28'10 9.7
2017-Feb-18 20:34N 65°03' E 011°44'1010.2
2017-Feb-18 19:33N 65°13' E 011°53'10 9.8
2017-Feb-18 18:33N 65°22' E 012°02'9 8.7
2017-Feb-18 17:33N 65°31' E 012°00'1010.4
2017-Feb-18 16:33N 65°40' E 012°13'1010.4
2017-Feb-18 15:33N 65°50' E 012°21'10 9.8
2017-Feb-18 14:33N 65°59' E 012°29'1010.0
2017-Feb-18 13:33N 66°08' E 012°40'9 9.1
2017-Feb-18 12:33N 66°15' E 012°27'10 9.8
2017-Feb-18 11:33N 66°21' E 012°07'9 9.3
2017-Feb-18 10:34N 66°30' E 012°06'0 0.2
2017-Feb-18 09:34N 66°30' E 012°06'0 0.0
2017-Feb-18 08:34N 66°30' E 012°06'0 0.0
2017-Feb-18 07:34N 66°30' E 012°06'0 0.0
2017-Feb-18 06:34N 66°30' E 012°06'0 0.0
2017-Feb-18 05:34N 66°30' E 012°06'0 0.0
2017-Feb-18 04:34N 66°30' E 012°06'0 0.0
2017-Feb-18 03:34N 66°30' E 012°06'0 0.0
2017-Feb-18 02:34N 66°30' E 012°06'0 0.0
2017-Feb-18 01:34N 66°30' E 012°06'0 0.0
2017-Feb-18 00:34N 66°30' E 012°06'4 3.6
2017-Feb-17 23:34N 66°27' E 012°06'8 8.0
2017-Feb-17 22:33N 66°20' E 011°54'  

Dump ship's entire track history